sensor_id;sensor_type;location;lat;lon;timestamp;temperature;humidity
9179;DHT22;4624;48.126;11.546;2023-03-01T00:00:03;1.80;95.00
9179;DHT22;4624;48.126;11.546;2023-03-01T00:02:30;1.70;95.00
9179;DHT22;4624;48.126;11.546;2023-03-01T00:04:56;1.80;95.10
9179;DHT22;4624;48.126;11.546;2023-03-01T00:07:23;1.70;95.00
9179;DHT22;4624;48.126;11.546;2023-03-01T00:09:50;1.70;95.10
9179;DHT22;4624;48.126;11.546;2023-03-01T00:12:18;1.80;95.10
9179;DHT22;4624;48.126;11.546;2023-03-01T00:14:45;1.80;95.10
9179;DHT22;4624;48.126;11.546;2023-03-01T00:17:11;1.70;95.10
9179;DHT22;4624;48.126;11.546;2023-03-01T00:19:38;1.70;95.10
9179;DHT22;4624;48.126;11.546;2023-03-01T00:22:05;1.70;95.10
9179;DHT22;4624;48.126;11.546;2023-03-01T00:24:32;1.70;95.10
9179;DHT22;4624;48.126;11.546;2023-03-01T00:26:59;1.70;95.10
9179;DHT22;4624;48.126;11.546;2023-03-01T00:29:27;1.70;95.10
9179;DHT22;4624;48.126;11.546;2023-03-01T00:31:54;1.60;95.10
9179;DHT22;4624;48.126;11.546;2023-03-01T00:34:20;1.60;95.10
9179;DHT22;4624;48.126;11.546;2023-03-01T00:36:47;1.70;95.20
9179;DHT22;4624;48.126;11.546;2023-03-01T00:39:14;1.70;95.20
9179;DHT22;4624;48.126;11.546;2023-03-01T00:41:42;1.70;95.20
9179;DHT22;4624;48.126;11.546;2023-03-01T00:44:10;1.70;95.20
9179;DHT22;4624;48.126;11.546;2023-03-01T00:46:38;1.60;95.20
9179;DHT22;4624;48.126;11.546;2023-03-01T00:49:05;1.60;95.20
9179;DHT22;4624;48.126;11.546;2023-03-01T00:51:32;1.70;95.20
9179;DHT22;4624;48.126;11.546;2023-03-01T00:54:00;1.60;95.20
9179;DHT22;4624;48.126;11.546;2023-03-01T00:56:28;1.60;95.20
9179;DHT22;4624;48.126;11.546;2023-03-01T00:58:55;1.60;95.20
9179;DHT22;4624;48.126;11.546;2023-03-01T01:01:24;1.60;95.20
9179;DHT22;4624;48.126;11.546;2023-03-01T01:03:55;1.60;95.20
9179;DHT22;4624;48.126;11.546;2023-03-01T01:06:24;1.60;95.30
9179;DHT22;4624;48.126;11.546;2023-03-01T01:08:52;1.70;95.30
9179;DHT22;4624;48.126;11.546;2023-03-01T01:11:20;1.60;95.20
9179;DHT22;4624;48.126;11.546;2023-03-01T01:13:47;1.60;95.30
9179;DHT22;4624;48.126;11.546;2023-03-01T01:16:16;1.60;95.30
9179;DHT22;4624;48.126;11.546;2023-03-01T01:18:43;1.60;95.20
9179;DHT22;4624;48.126;11.546;2023-03-01T01:21:14;1.60;95.20
9179;DHT22;4624;48.126;11.546;2023-03-01T01:23:42;1.50;95.20
9179;DHT22;4624;48.126;11.546;2023-03-01T01:26:12;1.50;95.30
9179;DHT22;4624;48.126;11.546;2023-03-01T01:28:40;1.60;95.30
9179;DHT22;4624;48.126;11.546;2023-03-01T01:31:06;1.60;95.30
9179;DHT22;4624;48.126;11.546;2023-03-01T01:33:34;1.50;95.20
9179;DHT22;4624;48.126;11.546;2023-03-01T01:36:00;1.50;95.60
9179;DHT22;4624;48.126;11.546;2023-03-01T01:38:28;1.50;95.30
9179;DHT22;4624;48.126;11.546;2023-03-01T01:40:55;1.60;95.30
9179;DHT22;4624;48.126;11.546;2023-03-01T01:43:23;1.50;95.30
9179;DHT22;4624;48.126;11.546;2023-03-01T01:45:51;1.50;95.30
9179;DHT22;4624;48.126;11.546;2023-03-01T01:48:22;1.50;95.30
9179;DHT22;4624;48.126;11.546;2023-03-01T01:50:55;1.50;95.30
9179;DHT22;4624;48.126;11.546;2023-03-01T01:53:24;1.50;95.30
9179;DHT22;4624;48.126;11.546;2023-03-01T01:55:55;1.60;95.30
9179;DHT22;4624;48.126;11.546;2023-03-01T01:58:24;1.50;95.30
9179;DHT22;4624;48.126;11.546;2023-03-01T02:00:51;1.50;95.60
9179;DHT22;4624;48.126;11.546;2023-03-01T02:03:22;1.50;95.30
9179;DHT22;4624;48.126;11.546;2023-03-01T02:05:53;1.50;95.30
9179;DHT22;4624;48.126;11.546;2023-03-01T02:08:23;1.60;95.30
9179;DHT22;4624;48.126;11.546;2023-03-01T02:10:53;1.60;95.40
9179;DHT22;4624;48.126;11.546;2023-03-01T02:13:21;1.60;95.40
9179;DHT22;4624;48.126;11.546;2023-03-01T02:15:48;1.60;95.30
9179;DHT22;4624;48.126;11.546;2023-03-01T02:18:18;1.50;95.50
9179;DHT22;4624;48.126;11.546;2023-03-01T02:20:54;1.50;95.20
9179;DHT22;4624;48.126;11.546;2023-03-01T02:23:25;1.50;95.20
9179;DHT22;4624;48.126;11.546;2023-03-01T02:25:57;1.50;95.10
9179;DHT22;4624;48.126;11.546;2023-03-01T02:28:30;1.40;95.10
9179;DHT22;4624;48.126;11.546;2023-03-01T02:30:57;1.40;95.10
9179;DHT22;4624;48.126;11.546;2023-03-01T02:33:41;1.40;95.20
9179;DHT22;4624;48.126;11.546;2023-03-01T02:36:12;1.40;95.20
9179;DHT22;4624;48.126;11.546;2023-03-01T02:38:41;1.40;95.20
9179;DHT22;4624;48.126;11.546;2023-03-01T02:41:09;1.40;95.30
9179;DHT22;4624;48.126;11.546;2023-03-01T02:43:39;1.40;95.30
9179;DHT22;4624;48.126;11.546;2023-03-01T02:46:08;1.40;95.20
9179;DHT22;4624;48.126;11.546;2023-03-01T02:48:40;1.40;95.20
9179;DHT22;4624;48.126;11.546;2023-03-01T02:51:16;1.40;95.30
9179;DHT22;4624;48.126;11.546;2023-03-01T02:53:52;1.40;95.30
9179;DHT22;4624;48.126;11.546;2023-03-01T02:56:20;1.40;95.30
9179;DHT22;4624;48.126;11.546;2023-03-01T02:58:48;1.40;95.30
9179;DHT22;4624;48.126;11.546;2023-03-01T03:01:17;1.40;95.30
9179;DHT22;4624;48.126;11.546;2023-03-01T03:03:44;1.40;95.30
9179;DHT22;4624;48.126;11.546;2023-03-01T03:06:11;1.40;95.30
9179;DHT22;4624;48.126;11.546;2023-03-01T03:08:38;1.40;95.30
9179;DHT22;4624;48.126;11.546;2023-03-01T03:11:05;1.40;95.30
9179;DHT22;4624;48.126;11.546;2023-03-01T03:13:32;1.30;95.30
9179;DHT22;4624;48.126;11.546;2023-03-01T03:16:02;1.40;95.30
9179;DHT22;4624;48.126;11.546;2023-03-01T03:18:29;1.30;95.20
9179;DHT22;4624;48.126;11.546;2023-03-01T03:20:56;1.30;95.20
9179;DHT22;4624;48.126;11.546;2023-03-01T03:23:23;1.30;95.60
9179;DHT22;4624;48.126;11.546;2023-03-01T03:25:50;1.40;95.30
9179;DHT22;4624;48.126;11.546;2023-03-01T03:28:17;1.30;95.20
9179;DHT22;4624;48.126;11.546;2023-03-01T03:30:45;1.30;95.10
9179;DHT22;4624;48.126;11.546;2023-03-01T03:33:13;1.30;95.10
9179;DHT22;4624;48.126;11.546;2023-03-01T03:35:42;1.30;95.10
9179;DHT22;4624;48.126;11.546;2023-03-01T03:38:12;1.20;95.10
9179;DHT22;4624;48.126;11.546;2023-03-01T03:40:43;1.20;95.00
9179;DHT22;4624;48.126;11.546;2023-03-01T03:43:11;1.20;95.00
9179;DHT22;4624;48.126;11.546;2023-03-01T03:45:39;1.20;95.00
9179;DHT22;4624;48.126;11.546;2023-03-01T03:48:08;1.10;94.90
9179;DHT22;4624;48.126;11.546;2023-03-01T03:50:38;1.10;94.90
9179;DHT22;4624;48.126;11.546;2023-03-01T03:53:06;1.10;94.90
9179;DHT22;4624;48.126;11.546;2023-03-01T03:55:34;1.10;94.90
9179;DHT22;4624;48.126;11.546;2023-03-01T03:58:05;1.10;94.90
9179;DHT22;4624;48.126;11.546;2023-03-01T04:00:33;1.20;95.00
9179;DHT22;4624;48.126;11.546;2023-03-01T04:03:01;1.20;95.00
9179;DHT22;4624;48.126;11.546;2023-03-01T04:05:28;1.20;94.90
9179;DHT22;4624;48.126;11.546;2023-03-01T04:07:57;1.20;94.90
9179;DHT22;4624;48.126;11.546;2023-03-01T04:10:34;1.10;94.80
9179;DHT22;4624;48.126;11.546;2023-03-01T04:13:01;1.10;94.80
9179;DHT22;4624;48.126;11.546;2023-03-01T04:15:28;1.10;94.80
9179;DHT22;4624;48.126;11.546;2023-03-01T04:17:55;1.00;94.80
9179;DHT22;4624;48.126;11.546;2023-03-01T04:20:24;1.10;94.90
9179;DHT22;4624;48.126;11.546;2023-03-01T04:22:52;1.10;94.80
9179;DHT22;4624;48.126;11.546;2023-03-01T04:25:20;1.00;94.80
9179;DHT22;4624;48.126;11.546;2023-03-01T04:27:47;1.00;94.80
9179;DHT22;4624;48.126;11.546;2023-03-01T04:30:14;1.00;94.80
9179;DHT22;4624;48.126;11.546;2023-03-01T04:32:41;1.00;94.80
9179;DHT22;4624;48.126;11.546;2023-03-01T04:35:09;1.00;94.90
9179;DHT22;4624;48.126;11.546;2023-03-01T04:37:35;1.00;94.80
9179;DHT22;4624;48.126;11.546;2023-03-01T04:40:03;0.90;94.80
9179;DHT22;4624;48.126;11.546;2023-03-01T04:42:40;1.00;94.80
9179;DHT22;4624;48.126;11.546;2023-03-01T04:45:08;1.00;94.80
9179;DHT22;4624;48.126;11.546;2023-03-01T04:47:39;1.00;94.80
9179;DHT22;4624;48.126;11.546;2023-03-01T04:50:06;0.90;94.70
9179;DHT22;4624;48.126;11.546;2023-03-01T04:52:34;0.90;94.80
9179;DHT22;4624;48.126;11.546;2023-03-01T04:55:01;1.00;94.80
9179;DHT22;4624;48.126;11.546;2023-03-01T04:57:29;0.90;94.80
9179;DHT22;4624;48.126;11.546;2023-03-01T04:59:57;0.90;94.80
9179;DHT22;4624;48.126;11.546;2023-03-01T05:02:24;1.00;94.80
9179;DHT22;4624;48.126;11.546;2023-03-01T05:04:50;0.90;94.80
9179;DHT22;4624;48.126;11.546;2023-03-01T05:07:17;0.90;94.80
9179;DHT22;4624;48.126;11.546;2023-03-01T05:09:46;0.90;94.80
9179;DHT22;4624;48.126;11.546;2023-03-01T05:12:13;0.90;94.80
9179;DHT22;4624;48.126;11.546;2023-03-01T05:14:40;0.90;94.80
9179;DHT22;4624;48.126;11.546;2023-03-01T05:17:08;0.80;94.80
9179;DHT22;4624;48.126;11.546;2023-03-01T05:19:35;0.80;94.90
9179;DHT22;4624;48.126;11.546;2023-03-01T05:22:02;0.80;94.90
9179;DHT22;4624;48.126;11.546;2023-03-01T05:24:32;0.70;94.90
9179;DHT22;4624;48.126;11.546;2023-03-01T05:26:59;0.70;94.90
9179;DHT22;4624;48.126;11.546;2023-03-01T05:29:28;0.60;94.90
9179;DHT22;4624;48.126;11.546;2023-03-01T05:31:56;0.60;95.00
9179;DHT22;4624;48.126;11.546;2023-03-01T05:34:26;0.60;95.00
9179;DHT22;4624;48.126;11.546;2023-03-01T05:36:54;0.60;95.10
9179;DHT22;4624;48.126;11.546;2023-03-01T05:39:21;0.60;95.10
9179;DHT22;4624;48.126;11.546;2023-03-01T05:41:52;0.60;95.10
9179;DHT22;4624;48.126;11.546;2023-03-01T05:44:19;0.60;95.20
9179;DHT22;4624;48.126;11.546;2023-03-01T05:46:46;0.50;95.10
9179;DHT22;4624;48.126;11.546;2023-03-01T05:49:13;0.50;95.10
9179;DHT22;4624;48.126;11.546;2023-03-01T05:51:42;0.50;95.00
9179;DHT22;4624;48.126;11.546;2023-03-01T05:54:09;0.50;95.00
9179;DHT22;4624;48.126;11.546;2023-03-01T05:56:36;0.50;95.00
9179;DHT22;4624;48.126;11.546;2023-03-01T05:59:04;0.40;95.00
9179;DHT22;4624;48.126;11.546;2023-03-01T06:01:31;0.40;95.10
9179;DHT22;4624;48.126;11.546;2023-03-01T06:03:58;0.40;95.10
9179;DHT22;4624;48.126;11.546;2023-03-01T06:06:25;0.50;95.20
9179;DHT22;4624;48.126;11.546;2023-03-01T06:08:53;0.50;95.20
9179;DHT22;4624;48.126;11.546;2023-03-01T06:11:21;0.50;95.20
9179;DHT22;4624;48.126;11.546;2023-03-01T06:13:48;0.50;95.10
9179;DHT22;4624;48.126;11.546;2023-03-01T06:16:14;0.50;95.10
9179;DHT22;4624;48.126;11.546;2023-03-01T06:18:41;0.50;95.10
9179;DHT22;4624;48.126;11.546;2023-03-01T06:21:08;0.50;95.10
9179;DHT22;4624;48.126;11.546;2023-03-01T06:23:35;0.50;95.10
9179;DHT22;4624;48.126;11.546;2023-03-01T06:26:07;0.50;95.10
9179;DHT22;4624;48.126;11.546;2023-03-01T06:28:34;0.50;95.10
9179;DHT22;4624;48.126;11.546;2023-03-01T06:31:02;0.50;95.10
9179;DHT22;4624;48.126;11.546;2023-03-01T06:33:29;0.50;95.00
9179;DHT22;4624;48.126;11.546;2023-03-01T06:35:55;0.50;95.00
9179;DHT22;4624;48.126;11.546;2023-03-01T06:38:22;0.50;95.00
9179;DHT22;4624;48.126;11.546;2023-03-01T06:40:52;0.50;95.00
9179;DHT22;4624;48.126;11.546;2023-03-01T06:43:21;0.50;95.00
9179;DHT22;4624;48.126;11.546;2023-03-01T06:45:47;0.50;95.00
9179;DHT22;4624;48.126;11.546;2023-03-01T06:48:14;0.50;95.00
9179;DHT22;4624;48.126;11.546;2023-03-01T06:50:41;0.50;95.10
9179;DHT22;4624;48.126;11.546;2023-03-01T06:53:08;0.50;95.10
9179;DHT22;4624;48.126;11.546;2023-03-01T06:55:34;0.60;95.10
9179;DHT22;4624;48.126;11.546;2023-03-01T06:58:02;0.60;95.10
9179;DHT22;4624;48.126;11.546;2023-03-01T07:00:31;0.60;95.10
9179;DHT22;4624;48.126;11.546;2023-03-01T07:02:59;0.60;95.10
9179;DHT22;4624;48.126;11.546;2023-03-01T07:05:27;0.60;95.10
9179;DHT22;4624;48.126;11.546;2023-03-01T07:07:54;0.60;95.00
9179;DHT22;4624;48.126;11.546;2023-03-01T07:10:21;0.60;95.00
9179;DHT22;4624;48.126;11.546;2023-03-01T07:12:48;0.70;95.00
9179;DHT22;4624;48.126;11.546;2023-03-01T07:15:15;0.70;95.10
9179;DHT22;4624;48.126;11.546;2023-03-01T07:17:43;0.70;95.00
9179;DHT22;4624;48.126;11.546;2023-03-01T07:20:13;0.70;94.90
9179;DHT22;4624;48.126;11.546;2023-03-01T07:22:40;0.70;94.90
9179;DHT22;4624;48.126;11.546;2023-03-01T07:25:08;0.70;94.90
9179;DHT22;4624;48.126;11.546;2023-03-01T07:27:35;0.70;94.90
9179;DHT22;4624;48.126;11.546;2023-03-01T07:30:03;0.70;94.90
9179;DHT22;4624;48.126;11.546;2023-03-01T07:32:30;0.80;95.00
9179;DHT22;4624;48.126;11.546;2023-03-01T07:34:58;0.80;95.00
9179;DHT22;4624;48.126;11.546;2023-03-01T07:37:24;0.80;95.20
9179;DHT22;4624;48.126;11.546;2023-03-01T07:39:51;0.80;94.90
9179;DHT22;4624;48.126;11.546;2023-03-01T07:42:18;0.80;94.90
9179;DHT22;4624;48.126;11.546;2023-03-01T07:44:45;0.90;95.00
9179;DHT22;4624;48.126;11.546;2023-03-01T07:47:11;0.90;94.90
9179;DHT22;4624;48.126;11.546;2023-03-01T07:49:38;0.90;94.90
9179;DHT22;4624;48.126;11.546;2023-03-01T07:52:06;1.00;94.90
9179;DHT22;4624;48.126;11.546;2023-03-01T07:54:33;1.00;94.90
9179;DHT22;4624;48.126;11.546;2023-03-01T07:57:00;1.10;94.80
9179;DHT22;4624;48.126;11.546;2023-03-01T07:59:26;1.10;94.80
9179;DHT22;4624;48.126;11.546;2023-03-01T08:01:54;1.20;94.70
9179;DHT22;4624;48.126;11.546;2023-03-01T08:04:21;1.10;94.60
9179;DHT22;4624;48.126;11.546;2023-03-01T08:06:50;1.10;94.50
9179;DHT22;4624;48.126;11.546;2023-03-01T08:09:18;1.10;94.50
9179;DHT22;4624;48.126;11.546;2023-03-01T08:11:45;1.20;94.50
9179;DHT22;4624;48.126;11.546;2023-03-01T08:14:12;1.20;94.40
9179;DHT22;4624;48.126;11.546;2023-03-01T08:16:39;1.20;94.30
9179;DHT22;4624;48.126;11.546;2023-03-01T08:19:06;1.20;94.30
9179;DHT22;4624;48.126;11.546;2023-03-01T08:21:33;1.20;94.30
9179;DHT22;4624;48.126;11.546;2023-03-01T08:24:00;1.20;94.20
9179;DHT22;4624;48.126;11.546;2023-03-01T08:26:29;1.10;94.10
9179;DHT22;4624;48.126;11.546;2023-03-01T08:28:56;1.10;94.10
9179;DHT22;4624;48.126;11.546;2023-03-01T08:31:25;1.20;94.20
9179;DHT22;4624;48.126;11.546;2023-03-01T08:33:56;1.30;94.10
9179;DHT22;4624;48.126;11.546;2023-03-01T08:36:24;1.30;94.00
9179;DHT22;4624;48.126;11.546;2023-03-01T08:38:51;1.30;94.00
9179;DHT22;4624;48.126;11.546;2023-03-01T08:41:19;1.40;93.90
9179;DHT22;4624;48.126;11.546;2023-03-01T08:43:47;1.50;94.00
9179;DHT22;4624;48.126;11.546;2023-03-01T08:46:14;1.50;93.90
9179;DHT22;4624;48.126;11.546;2023-03-01T08:48:40;1.50;93.80
9179;DHT22;4624;48.126;11.546;2023-03-01T08:51:10;1.60;93.80
9179;DHT22;4624;48.126;11.546;2023-03-01T08:53:36;1.70;93.80
9179;DHT22;4624;48.126;11.546;2023-03-01T08:56:04;1.80;93.70
9179;DHT22;4624;48.126;11.546;2023-03-01T08:58:31;1.90;93.60
9179;DHT22;4624;48.126;11.546;2023-03-01T09:01:00;2.00;93.50
9179;DHT22;4624;48.126;11.546;2023-03-01T09:03:27;2.00;93.50
9179;DHT22;4624;48.126;11.546;2023-03-01T09:06:00;2.00;93.30
9179;DHT22;4624;48.126;11.546;2023-03-01T09:08:27;1.90;93.20
9179;DHT22;4624;48.126;11.546;2023-03-01T09:10:53;2.00;93.20
9179;DHT22;4624;48.126;11.546;2023-03-01T09:13:20;2.00;93.20
9179;DHT22;4624;48.126;11.546;2023-03-01T09:15:49;2.00;93.00
9179;DHT22;4624;48.126;11.546;2023-03-01T09:18:17;2.10;93.00
9179;DHT22;4624;48.126;11.546;2023-03-01T09:20:43;2.10;93.00
9179;DHT22;4624;48.126;11.546;2023-03-01T09:23:10;2.10;93.00
9179;DHT22;4624;48.126;11.546;2023-03-01T09:25:37;2.20;93.00
9179;DHT22;4624;48.126;11.546;2023-03-01T09:28:04;2.20;93.00
9179;DHT22;4624;48.126;11.546;2023-03-01T09:30:31;2.30;93.00
9179;DHT22;4624;48.126;11.546;2023-03-01T09:32:58;2.30;92.90
9179;DHT22;4624;48.126;11.546;2023-03-01T09:35:26;2.30;92.70
9179;DHT22;4624;48.126;11.546;2023-03-01T09:37:53;2.30;92.70
9179;DHT22;4624;48.126;11.546;2023-03-01T09:40:23;2.40;92.70
9179;DHT22;4624;48.126;11.546;2023-03-01T09:42:54;2.40;92.60
9179;DHT22;4624;48.126;11.546;2023-03-01T09:45:27;2.40;92.50
9179;DHT22;4624;48.126;11.546;2023-03-01T09:47:55;2.30;92.50
9179;DHT22;4624;48.126;11.546;2023-03-01T09:50:23;2.40;92.50
9179;DHT22;4624;48.126;11.546;2023-03-01T09:52:59;2.40;92.50
9179;DHT22;4624;48.126;11.546;2023-03-01T09:55:31;2.50;92.50
9179;DHT22;4624;48.126;11.546;2023-03-01T09:58:04;2.60;92.50
9179;DHT22;4624;48.126;11.546;2023-03-01T10:00:38;2.70;92.50
9179;DHT22;4624;48.126;11.546;2023-03-01T10:03:13;2.80;92.40
9179;DHT22;4624;48.126;11.546;2023-03-01T10:05:55;2.80;92.30
9179;DHT22;4624;48.126;11.546;2023-03-01T10:08:38;2.80;92.10
9179;DHT22;4624;48.126;11.546;2023-03-01T10:11:19;2.80;92.00
9179;DHT22;4624;48.126;11.546;2023-03-01T10:13:50;2.80;92.00
9179;DHT22;4624;48.126;11.546;2023-03-01T10:16:22;2.80;92.10
9179;DHT22;4624;48.126;11.546;2023-03-01T10:18:53;2.80;92.10
9179;DHT22;4624;48.126;11.546;2023-03-01T10:21:21;2.80;92.10
9179;DHT22;4624;48.126;11.546;2023-03-01T10:23:51;2.90;92.20
9179;DHT22;4624;48.126;11.546;2023-03-01T10:26:33;2.90;92.20
9179;DHT22;4624;48.126;11.546;2023-03-01T10:29:04;2.90;92.10
9179;DHT22;4624;48.126;11.546;2023-03-01T10:31:38;3.00;92.20
9179;DHT22;4624;48.126;11.546;2023-03-01T10:34:10;3.20;92.20
9179;DHT22;4624;48.126;11.546;2023-03-01T10:36:39;3.30;91.90
9179;DHT22;4624;48.126;11.546;2023-03-01T10:39:14;3.50;91.60
9179;DHT22;4624;48.126;11.546;2023-03-01T10:41:56;3.60;91.40
9179;DHT22;4624;48.126;11.546;2023-03-01T10:44:42;3.80;91.10
9179;DHT22;4624;48.126;11.546;2023-03-01T10:47:15;4.00;90.90
9179;DHT22;4624;48.126;11.546;2023-03-01T10:50:17;4.50;90.60
9179;DHT22;4624;48.126;11.546;2023-03-01T10:52:56;4.80;90.10
9179;DHT22;4624;48.126;11.546;2023-03-01T10:55:30;5.10;89.50
9179;DHT22;4624;48.126;11.546;2023-03-01T10:58:08;5.10;88.60
9179;DHT22;4624;48.126;11.546;2023-03-01T11:00:47;5.00;87.40
9179;DHT22;4624;48.126;11.546;2023-03-01T11:03:18;4.90;87.50
9179;DHT22;4624;48.126;11.546;2023-03-01T11:05:55;5.20;88.00
9179;DHT22;4624;48.126;11.546;2023-03-01T11:08:41;6.40;87.60
9179;DHT22;4624;48.126;11.546;2023-03-01T11:11:26;7.10;85.00
9179;DHT22;4624;48.126;11.546;2023-03-01T11:13:58;7.40;82.10
9179;DHT22;4624;48.126;11.546;2023-03-01T11:16:34;8.10;80.60
9179;DHT22;4624;48.126;11.546;2023-03-01T11:19:18;10.00;78.10
9179;DHT22;4624;48.126;11.546;2023-03-01T11:21:58;11.50;71.50
9179;DHT22;4624;48.126;11.546;2023-03-01T11:24:33;11.90;66.00
9179;DHT22;4624;48.126;11.546;2023-03-01T11:27:04;11.60;63.70
9179;DHT22;4624;48.126;11.546;2023-03-01T11:29:37;12.40;62.80
9179;DHT22;4624;48.126;11.546;2023-03-01T11:32:07;13.40;60.30
9179;DHT22;4624;48.126;11.546;2023-03-01T11:34:40;13.70;57.90
9179;DHT22;4624;48.126;11.546;2023-03-01T11:37:21;13.60;56.60
9179;DHT22;4624;48.126;11.546;2023-03-01T11:39:54;13.80;55.80
9179;DHT22;4624;48.126;11.546;2023-03-01T11:42:34;14.00;54.90
9179;DHT22;4624;48.126;11.546;2023-03-01T11:45:08;15.10;54.80
9179;DHT22;4624;48.126;11.546;2023-03-01T11:47:54;16.00;52.50
9179;DHT22;4624;48.126;11.546;2023-03-01T11:50:30;15.30;50.20
9179;DHT22;4624;48.126;11.546;2023-03-01T11:53:30;14.90;50.60
9179;DHT22;4624;48.126;11.546;2023-03-01T11:56:09;15.00;50.20
9179;DHT22;4624;48.126;11.546;2023-03-01T11:58:53;15.70;49.00
9179;DHT22;4624;48.126;11.546;2023-03-01T12:01:33;15.90;48.10
9179;DHT22;4624;48.126;11.546;2023-03-01T12:04:29;15.50;48.40
9179;DHT22;4624;48.126;11.546;2023-03-01T12:07:00;14.60;48.90
9179;DHT22;4624;48.126;11.546;2023-03-01T12:09:38;15.20;49.30
9179;DHT22;4624;48.126;11.546;2023-03-01T12:12:23;15.80;48.50
9179;DHT22;4624;48.126;11.546;2023-03-01T12:14:59;16.30;48.10
9179;DHT22;4624;48.126;11.546;2023-03-01T12:17:40;16.90;46.70
9179;DHT22;4624;48.126;11.546;2023-03-01T12:20:20;17.30;45.40
9179;DHT22;4624;48.126;11.546;2023-03-01T12:23:10;15.50;45.50
9179;DHT22;4624;48.126;11.546;2023-03-01T12:25:47;14.50;47.00
9179;DHT22;4624;48.126;11.546;2023-03-01T12:28:37;14.50;47.50
9179;DHT22;4624;48.126;11.546;2023-03-01T12:31:35;14.50;47.50
9179;DHT22;4624;48.126;11.546;2023-03-01T12:34:15;14.90;47.70
9179;DHT22;4624;48.126;11.546;2023-03-01T12:36:57;14.90;47.10
9179;DHT22;4624;48.126;11.546;2023-03-01T12:39:42;14.90;47.10
9179;DHT22;4624;48.126;11.546;2023-03-01T12:42:23;14.80;46.60
9179;DHT22;4624;48.126;11.546;2023-03-01T12:45:05;14.50;47.00
9179;DHT22;4624;48.126;11.546;2023-03-01T12:47:56;14.70;47.50
9179;DHT22;4624;48.126;11.546;2023-03-01T12:50:37;15.30;48.30
9179;DHT22;4624;48.126;11.546;2023-03-01T12:53:05;16.20;47.20
9179;DHT22;4624;48.126;11.546;2023-03-01T12:55:34;17.10;45.70
9179;DHT22;4624;48.126;11.546;2023-03-01T12:58:15;17.50;44.60
9179;DHT22;4624;48.126;11.546;2023-03-01T13:01:00;17.60;44.30
9179;DHT22;4624;48.126;11.546;2023-03-01T13:03:38;17.40;43.00
9179;DHT22;4624;48.126;11.546;2023-03-01T13:06:12;16.50;43.60
9179;DHT22;4624;48.126;11.546;2023-03-01T13:08:47;15.70;44.20
9179;DHT22;4624;48.126;11.546;2023-03-01T13:11:18;14.50;45.80
9179;DHT22;4624;48.126;11.546;2023-03-01T13:13:46;13.40;47.00
9179;DHT22;4624;48.126;11.546;2023-03-01T13:16:38;12.10;48.30
9179;DHT22;4624;48.126;11.546;2023-03-01T13:19:13;10.80;50.20
9179;DHT22;4624;48.126;11.546;2023-03-01T13:21:41;9.80;52.90
9179;DHT22;4624;48.126;11.546;2023-03-01T13:24:25;9.50;54.00
9179;DHT22;4624;48.126;11.546;2023-03-01T13:27:10;9.40;55.10
9179;DHT22;4624;48.126;11.546;2023-03-01T13:29:45;9.70;55.30
9179;DHT22;4624;48.126;11.546;2023-03-01T13:32:20;10.50;53.70
9179;DHT22;4624;48.126;11.546;2023-03-01T13:35:08;11.00;53.10
9179;DHT22;4624;48.126;11.546;2023-03-01T13:41:09;13.30;51.60
9179;DHT22;4624;48.126;11.546;2023-03-01T13:43:37;13.80;50.50
9179;DHT22;4624;48.126;11.546;2023-03-01T13:46:10;13.30;50.00
9179;DHT22;4624;48.126;11.546;2023-03-01T13:48:38;11.90;51.00
9179;DHT22;4624;48.126;11.546;2023-03-01T13:51:08;10.70;52.40
9179;DHT22;4624;48.126;11.546;2023-03-01T13:53:40;9.60;55.20
9179;DHT22;4624;48.126;11.546;2023-03-01T13:56:10;8.80;56.70
9179;DHT22;4624;48.126;11.546;2023-03-01T13:58:47;8.30;57.90
9179;DHT22;4624;48.126;11.546;2023-03-01T14:01:22;7.80;58.80
9179;DHT22;4624;48.126;11.546;2023-03-01T14:03:49;7.60;59.60
9179;DHT22;4624;48.126;11.546;2023-03-01T14:06:19;7.40;60.70
9179;DHT22;4624;48.126;11.546;2023-03-01T14:08:50;7.20;61.60
9179;DHT22;4624;48.126;11.546;2023-03-01T14:11:33;7.00;62.90
9179;DHT22;4624;48.126;11.546;2023-03-01T14:14:19;6.90;63.70
9179;DHT22;4624;48.126;11.546;2023-03-01T14:16:58;6.70;64.40
9179;DHT22;4624;48.126;11.546;2023-03-01T14:19:28;6.60;64.60
9179;DHT22;4624;48.126;11.546;2023-03-01T14:22:02;6.50;66.00
9179;DHT22;4624;48.126;11.546;2023-03-01T14:24:33;6.40;67.00
9179;DHT22;4624;48.126;11.546;2023-03-01T14:27:02;6.40;67.30
9179;DHT22;4624;48.126;11.546;2023-03-01T14:29:35;6.30;67.70
9179;DHT22;4624;48.126;11.546;2023-03-01T14:32:17;6.30;68.70
9179;DHT22;4624;48.126;11.546;2023-03-01T14:34:47;6.30;68.90
9179;DHT22;4624;48.126;11.546;2023-03-01T14:37:22;6.30;69.30
9179;DHT22;4624;48.126;11.546;2023-03-01T14:39:52;6.30;70.50
9179;DHT22;4624;48.126;11.546;2023-03-01T14:42:21;6.20;70.80
9179;DHT22;4624;48.126;11.546;2023-03-01T14:44:50;6.20;71.00
9179;DHT22;4624;48.126;11.546;2023-03-01T14:47:25;6.20;72.50
9179;DHT22;4624;48.126;11.546;2023-03-01T14:49:57;6.20;72.30
9179;DHT22;4624;48.126;11.546;2023-03-01T14:52:31;6.20;72.80
9179;DHT22;4624;48.126;11.546;2023-03-01T14:55:04;6.20;72.90
9179;DHT22;4624;48.126;11.546;2023-03-01T14:57:31;6.20;73.70
9179;DHT22;4624;48.126;11.546;2023-03-01T15:00:00;6.10;74.40
9179;DHT22;4624;48.126;11.546;2023-03-01T15:02:31;6.10;74.80
9179;DHT22;4624;48.126;11.546;2023-03-01T15:05:00;6.10;75.00
9179;DHT22;4624;48.126;11.546;2023-03-01T15:07:30;6.10;75.40
9179;DHT22;4624;48.126;11.546;2023-03-01T15:09:58;6.10;75.90
9179;DHT22;4624;48.126;11.546;2023-03-01T15:12:40;6.10;76.10
9179;DHT22;4624;48.126;11.546;2023-03-01T15:15:33;6.10;76.50
9179;DHT22;4624;48.126;11.546;2023-03-01T15:18:02;6.10;77.40
9179;DHT22;4624;48.126;11.546;2023-03-01T15:20:30;6.00;78.00
9179;DHT22;4624;48.126;11.546;2023-03-01T15:23:01;6.00;78.20
9179;DHT22;4624;48.126;11.546;2023-03-01T15:25:29;6.00;78.50
9179;DHT22;4624;48.126;11.546;2023-03-01T15:27:59;6.00;78.50
9179;DHT22;4624;48.126;11.546;2023-03-01T15:30:29;6.00;78.90
9179;DHT22;4624;48.126;11.546;2023-03-01T15:33:32;6.00;79.00
9179;DHT22;4624;48.126;11.546;2023-03-01T15:36:00;6.00;79.50
9179;DHT22;4624;48.126;11.546;2023-03-01T15:38:29;6.00;79.80
9179;DHT22;4624;48.126;11.546;2023-03-01T15:40:58;5.90;80.10
9179;DHT22;4624;48.126;11.546;2023-03-01T15:43:41;5.90;80.50
9179;DHT22;4624;48.126;11.546;2023-03-01T15:46:17;5.90;81.00
9179;DHT22;4624;48.126;11.546;2023-03-01T15:48:46;5.90;81.20
9179;DHT22;4624;48.126;11.546;2023-03-01T15:51:15;5.80;81.50
9179;DHT22;4624;48.126;11.546;2023-03-01T15:53:43;5.80;81.60
9179;DHT22;4624;48.126;11.546;2023-03-01T15:56:14;5.80;81.90
9179;DHT22;4624;48.126;11.546;2023-03-01T15:58:42;5.90;82.10
9179;DHT22;4624;48.126;11.546;2023-03-01T16:01:11;5.90;82.30
9179;DHT22;4624;48.126;11.546;2023-03-01T16:03:39;5.80;82.60
9179;DHT22;4624;48.126;11.546;2023-03-01T16:06:06;5.80;83.20
9179;DHT22;4624;48.126;11.546;2023-03-01T16:08:33;5.80;83.50
9179;DHT22;4624;48.126;11.546;2023-03-01T16:11:00;5.80;84.20
9179;DHT22;4624;48.126;11.546;2023-03-01T16:13:30;5.80;84.40
9179;DHT22;4624;48.126;11.546;2023-03-01T16:15:58;5.80;84.60
9179;DHT22;4624;48.126;11.546;2023-03-01T16:18:25;5.80;85.00
9179;DHT22;4624;48.126;11.546;2023-03-01T16:20:52;5.70;85.10
9179;DHT22;4624;48.126;11.546;2023-03-01T16:23:19;5.80;85.30
9179;DHT22;4624;48.126;11.546;2023-03-01T16:25:50;5.70;85.70